sensor_id;sensor_type;location;lat;lon;timestamp;temperature;humidity
19734;DHT22;10018;51.230;7.860;2023-09-30T00:01:28;12.40;99.90
19734;DHT22;10018;51.230;7.860;2023-09-30T00:03:54;12.40;99.90
19734;DHT22;10018;51.230;7.860;2023-09-30T00:06:20;12.30;99.90
19734;DHT22;10018;51.230;7.860;2023-09-30T00:08:45;12.30;99.90
19734;DHT22;10018;51.230;7.860;2023-09-30T00:11:15;12.30;99.90
19734;DHT22;10018;51.230;7.860;2023-09-30T00:13:42;12.30;99.90
19734;DHT22;10018;51.230;7.860;2023-09-30T00:16:07;12.30;99.90
19734;DHT22;10018;51.230;7.860;2023-09-30T00:18:35;12.20;99.90
19734;DHT22;10018;51.230;7.860;2023-09-30T00:21:01;12.20;99.90
19734;DHT22;10018;51.230;7.860;2023-09-30T00:23:28;12.10;99.90
19734;DHT22;10018;51.230;7.860;2023-09-30T00:25:54;12.10;99.90
19734;DHT22;10018;51.230;7.860;2023-09-30T00:28:19;12.10;99.90
19734;DHT22;10018;51.230;7.860;2023-09-30T00:30:45;12.00;99.90
19734;DHT22;10018;51.230;7.860;2023-09-30T00:33:13;12.00;99.90
19734;DHT22;10018;51.230;7.860;2023-09-30T00:35:39;12.00;99.90
19734;DHT22;10018;51.230;7.860;2023-09-30T00:38:04;11.90;99.90
19734;DHT22;10018;51.230;7.860;2023-09-30T00:40:32;11.90;99.90
19734;DHT22;10018;51.230;7.860;2023-09-30T00:42:58;11.90;99.90
19734;DHT22;10018;51.230;7.860;2023-09-30T00:45:23;12.00;99.90
19734;DHT22;10018;51.230;7.860;2023-09-30T00:47:49;11.90;99.90
19734;DHT22;10018;51.230;7.860;2023-09-30T00:50:16;11.80;99.90
19734;DHT22;10018;51.230;7.860;2023-09-30T00:52:45;11.70;99.90
19734;DHT22;10018;51.230;7.860;2023-09-30T00:55:11;11.70;99.90
19734;DHT22;10018;51.230;7.860;2023-09-30T00:57:40;11.70;99.90
19734;DHT22;10018;51.230;7.860;2023-09-30T01:00:07;11.70;99.90
19734;DHT22;10018;51.230;7.860;2023-09-30T01:02:33;11.70;99.90
19734;DHT22;10018;51.230;7.860;2023-09-30T01:05:01;11.70;99.90
19734;DHT22;10018;51.230;7.860;2023-09-30T01:07:26;11.70;99.90
19734;DHT22;10018;51.230;7.860;2023-09-30T01:09:52;11.70;99.90
19734;DHT22;10018;51.230;7.860;2023-09-30T01:12:17;11.70;99.90
19734;DHT22;10018;51.230;7.860;2023-09-30T01:14:43;11.80;99.90
19734;DHT22;10018;51.230;7.860;2023-09-30T01:17:09;11.80;99.90
19734;DHT22;10018;51.230;7.860;2023-09-30T01:19:36;11.80;99.90
19734;DHT22;10018;51.230;7.860;2023-09-30T01:22:04;11.80;99.90
19734;DHT22;10018;51.230;7.860;2023-09-30T01:24:41;11.80;99.90
19734;DHT22;10018;51.230;7.860;2023-09-30T01:27:07;11.80;99.90
19734;DHT22;10018;51.230;7.860;2023-09-30T01:29:33;11.80;99.90
19734;DHT22;10018;51.230;7.860;2023-09-30T01:31:58;11.90;99.90
19734;DHT22;10018;51.230;7.860;2023-09-30T01:34:24;11.90;99.90
19734;DHT22;10018;51.230;7.860;2023-09-30T01:36:50;11.90;99.90
19734;DHT22;10018;51.230;7.860;2023-09-30T01:39:17;11.90;99.90
19734;DHT22;10018;51.230;7.860;2023-09-30T01:41:43;11.90;99.90
19734;DHT22;10018;51.230;7.860;2023-09-30T01:44:08;11.90;99.90
19734;DHT22;10018;51.230;7.860;2023-09-30T01:46:34;11.90;99.90
19734;DHT22;10018;51.230;7.860;2023-09-30T01:49:00;11.90;99.90
19734;DHT22;10018;51.230;7.860;2023-09-30T01:51:25;11.90;99.90
19734;DHT22;10018;51.230;7.860;2023-09-30T01:53:55;12.00;99.90
19734;DHT22;10018;51.230;7.860;2023-09-30T01:56:21;12.00;99.90
19734;DHT22;10018;51.230;7.860;2023-09-30T01:58:47;12.00;99.90
19734;DHT22;10018;51.230;7.860;2023-09-30T02:01:12;12.00;99.90
19734;DHT22;10018;51.230;7.860;2023-09-30T02:03:38;11.90;99.90
19734;DHT22;10018;51.230;7.860;2023-09-30T02:06:03;11.90;99.90
19734;DHT22;10018;51.230;7.860;2023-09-30T02:08:30;11.80;99.90
19734;DHT22;10018;51.230;7.860;2023-09-30T02:10:55;11.80;99.90
19734;DHT22;10018;51.230;7.860;2023-09-30T02:13:21;11.80;99.90
19734;DHT22;10018;51.230;7.860;2023-09-30T02:15:46;11.80;99.90
19734;DHT22;10018;51.230;7.860;2023-09-30T02:18:14;11.80;99.90
19734;DHT22;10018;51.230;7.860;2023-09-30T02:20:40;11.80;99.90
19734;DHT22;10018;51.230;7.860;2023-09-30T02:23:12;11.80;99.90
19734;DHT22;10018;51.230;7.860;2023-09-30T02:25:40;11.80;99.90
19734;DHT22;10018;51.230;7.860;2023-09-30T02:28:06;11.80;99.90
19734;DHT22;10018;51.230;7.860;2023-09-30T02:30:32;11.80;99.90
19734;DHT22;10018;51.230;7.860;2023-09-30T02:32:58;11.80;99.90
19734;DHT22;10018;51.230;7.860;2023-09-30T02:35:23;11.80;99.90
19734;DHT22;10018;51.230;7.860;2023-09-30T02:37:49;11.80;99.90
19734;DHT22;10018;51.230;7.860;2023-09-30T02:40:17;11.80;99.90
19734;DHT22;10018;51.230;7.860;2023-09-30T02:42:43;11.80;99.90
19734;DHT22;10018;51.230;7.860;2023-09-30T02:45:10;11.80;99.90
19734;DHT22;10018;51.230;7.860;2023-09-30T02:47:36;11.80;99.90
19734;DHT22;10018;51.230;7.860;2023-09-30T02:50:05;11.80;99.90
19734;DHT22;10018;51.230;7.860;2023-09-30T02:52:36;11.80;99.90
19734;DHT22;10018;51.230;7.860;2023-09-30T02:55:02;11.80;99.90
19734;DHT22;10018;51.230;7.860;2023-09-30T02:57:28;11.80;99.90
19734;DHT22;10018;51.230;7.860;2023-09-30T02:59:54;11.80;99.90
19734;DHT22;10018;51.230;7.860;2023-09-30T03:02:20;11.80;99.90
19734;DHT22;10018;51.230;7.860;2023-09-30T03:04:47;11.80;99.90
19734;DHT22;10018;51.230;7.860;2023-09-30T03:07:16;11.80;99.90
19734;DHT22;10018;51.230;7.860;2023-09-30T03:09:42;11.80;99.90
19734;DHT22;10018;51.230;7.860;2023-09-30T03:12:08;11.80;99.90
19734;DHT22;10018;51.230;7.860;2023-09-30T03:14:34;11.80;99.90
19734;DHT22;10018;51.230;7.860;2023-09-30T03:16:59;11.80;99.90
19734;DHT22;10018;51.230;7.860;2023-09-30T03:19:25;11.90;99.90
19734;DHT22;10018;51.230;7.860;2023-09-30T03:21:53;11.90;99.90
19734;DHT22;10018;51.230;7.860;2023-09-30T03:24:19;11.80;99.90
19734;DHT22;10018;51.230;7.860;2023-09-30T03:26:46;11.80;99.90
19734;DHT22;10018;51.230;7.860;2023-09-30T03:29:12;11.80;99.90
19734;DHT22;10018;51.230;7.860;2023-09-30T03:31:38;11.80;99.90
19734;DHT22;10018;51.230;7.860;2023-09-30T03:34:03;11.80;99.90
19734;DHT22;10018;51.230;7.860;2023-09-30T03:36:29;11.80;99.90
19734;DHT22;10018;51.230;7.860;2023-09-30T03:38:56;11.80;99.90
19734;DHT22;10018;51.230;7.860;2023-09-30T03:41:24;11.80;99.90
19734;DHT22;10018;51.230;7.860;2023-09-30T03:43:50;11.80;99.90
19734;DHT22;10018;51.230;7.860;2023-09-30T03:46:16;11.70;99.90
19734;DHT22;10018;51.230;7.860;2023-09-30T03:48:42;11.80;99.90
19734;DHT22;10018;51.230;7.860;2023-09-30T03:51:14;11.70;99.90
19734;DHT22;10018;51.230;7.860;2023-09-30T03:53:43;11.80;99.90
19734;DHT22;10018;51.230;7.860;2023-09-30T03:56:10;11.80;99.90
19734;DHT22;10018;51.230;7.860;2023-09-30T03:58:41;11.70;99.90
19734;DHT22;10018;51.230;7.860;2023-09-30T04:01:10;11.70;99.90
19734;DHT22;10018;51.230;7.860;2023-09-30T04:03:39;11.70;99.90
19734;DHT22;10018;51.230;7.860;2023-09-30T04:06:05;11.70;99.90
19734;DHT22;10018;51.230;7.860;2023-09-30T04:08:32;11.70;99.90
19734;DHT22;10018;51.230;7.860;2023-09-30T04:10:59;11.70;99.90
19734;DHT22;10018;51.230;7.860;2023-09-30T04:13:25;11.70;99.90
19734;DHT22;10018;51.230;7.860;2023-09-30T04:15:51;11.70;99.90
19734;DHT22;10018;51.230;7.860;2023-09-30T04:18:17;11.70;99.90
19734;DHT22;10018;51.230;7.860;2023-09-30T04:20:45;11.70;99.90
19734;DHT22;10018;51.230;7.860;2023-09-30T04:23:12;11.70;99.90
19734;DHT22;10018;51.230;7.860;2023-09-30T04:25:38;11.70;99.90
19734;DHT22;10018;51.230;7.860;2023-09-30T04:28:04;11.70;99.90
19734;DHT22;10018;51.230;7.860;2023-09-30T04:30:30;11.70;99.90
19734;DHT22;10018;51.230;7.860;2023-09-30T04:33:00;11.60;99.90
19734;DHT22;10018;51.230;7.860;2023-09-30T04:35:26;11.70;99.90
19734;DHT22;10018;51.230;7.860;2023-09-30T04:37:52;11.70;99.90
19734;DHT22;10018;51.230;7.860;2023-09-30T04:40:18;11.60;99.90
19734;DHT22;10018;51.230;7.860;2023-09-30T04:42:45;11.60;99.90
19734;DHT22;10018;51.230;7.860;2023-09-30T04:45:15;11.60;99.90
19734;DHT22;10018;51.230;7.860;2023-09-30T04:47:45;11.60;99.90
19734;DHT22;10018;51.230;7.860;2023-09-30T04:50:11;11.60;99.90
19734;DHT22;10018;51.230;7.860;2023-09-30T04:52:39;11.60;99.90
19734;DHT22;10018;51.230;7.860;2023-09-30T04:55:06;11.60;99.90
19734;DHT22;10018;51.230;7.860;2023-09-30T04:57:31;11.60;99.90
19734;DHT22;10018;51.230;7.860;2023-09-30T04:59:58;11.50;99.90
19734;DHT22;10018;51.230;7.860;2023-09-30T05:02:27;11.50;99.90
19734;DHT22;10018;51.230;7.860;2023-09-30T05:04:53;11.50;99.90
19734;DHT22;10018;51.230;7.860;2023-09-30T05:07:20;11.40;99.90
19734;DHT22;10018;51.230;7.860;2023-09-30T05:09:47;11.30;99.90
19734;DHT22;10018;51.230;7.860;2023-09-30T05:12:12;11.30;99.90
19734;DHT22;10018;51.230;7.860;2023-09-30T05:14:38;11.30;99.90
19734;DHT22;10018;51.230;7.860;2023-09-30T05:17:04;11.20;99.90
19734;DHT22;10018;51.230;7.860;2023-09-30T05:19:31;11.20;99.90
19734;DHT22;10018;51.230;7.860;2023-09-30T05:21:59;11.10;99.90
19734;DHT22;10018;51.230;7.860;2023-09-30T05:24:27;11.20;99.90
19734;DHT22;10018;51.230;7.860;2023-09-30T05:26:52;11.10;99.90
19734;DHT22;10018;51.230;7.860;2023-09-30T05:29:21;11.20;99.90
19734;DHT22;10018;51.230;7.860;2023-09-30T05:31:46;11.10;99.90
19734;DHT22;10018;51.230;7.860;2023-09-30T05:34:12;11.10;99.90
19734;DHT22;10018;51.230;7.860;2023-09-30T05:36:38;11.10;99.90
19734;DHT22;10018;51.230;7.860;2023-09-30T05:39:03;11.10;99.90
19734;DHT22;10018;51.230;7.860;2023-09-30T05:41:33;11.10;99.90
19734;DHT22;10018;51.230;7.860;2023-09-30T05:44:01;11.20;99.90
19734;DHT22;10018;51.230;7.860;2023-09-30T05:46:30;11.20;99.90
19734;DHT22;10018;51.230;7.860;2023-09-30T05:48:56;11.20;99.90
19734;DHT22;10018;51.230;7.860;2023-09-30T05:51:22;11.20;99.90
19734;DHT22;10018;51.230;7.860;2023-09-30T05:53:49;11.20;99.90
19734;DHT22;10018;51.230;7.860;2023-09-30T05:56:15;11.20;99.90
19734;DHT22;10018;51.230;7.860;2023-09-30T05:58:43;11.20;99.90
19734;DHT22;10018;51.230;7.860;2023-09-30T06:01:09;11.20;99.90
19734;DHT22;10018;51.230;7.860;2023-09-30T06:03:36;11.20;99.90
19734;DHT22;10018;51.230;7.860;2023-09-30T06:06:11;11.20;99.90
19734;DHT22;10018;51.230;7.860;2023-09-30T06:08:38;11.20;99.90
19734;DHT22;10018;51.230;7.860;2023-09-30T06:11:03;11.20;99.90
19734;DHT22;10018;51.230;7.860;2023-09-30T06:13:34;11.20;99.90
19734;DHT22;10018;51.230;7.860;2023-09-30T06:16:01;11.10;99.90
19734;DHT22;10018;51.230;7.860;2023-09-30T06:18:30;11.20;99.90
19734;DHT22;10018;51.230;7.860;2023-09-30T06:20:57;11.10;99.90
19734;DHT22;10018;51.230;7.860;2023-09-30T06:23:26;11.10;99.90
19734;DHT22;10018;51.230;7.860;2023-09-30T06:25:51;11.00;99.90
19734;DHT22;10018;51.230;7.860;2023-09-30T06:28:17;11.00;99.90
19734;DHT22;10018;51.230;7.860;2023-09-30T06:30:42;11.00;99.90
19734;DHT22;10018;51.230;7.860;2023-09-30T06:33:10;11.00;99.90
19734;DHT22;10018;51.230;7.860;2023-09-30T06:35:41;11.00;99.90
19734;DHT22;10018;51.230;7.860;2023-09-30T06:38:17;11.10;99.90
19734;DHT22;10018;51.230;7.860;2023-09-30T06:40:43;11.20;99.90
19734;DHT22;10018;51.230;7.860;2023-09-30T06:43:12;11.20;99.90
19734;DHT22;10018;51.230;7.860;2023-09-30T06:45:44;11.30;99.90
19734;DHT22;10018;51.230;7.860;2023-09-30T06:48:10;11.30;99.90
19734;DHT22;10018;51.230;7.860;2023-09-30T06:50:43;11.20;99.90
19734;DHT22;10018;51.230;7.860;2023-09-30T06:53:09;11.20;99.90
19734;DHT22;10018;51.230;7.860;2023-09-30T06:55:36;11.30;99.90
19734;DHT22;10018;51.230;7.860;2023-09-30T06:58:02;11.30;99.90
19734;DHT22;10018;51.230;7.860;2023-09-30T07:00:29;11.30;99.90
19734;DHT22;10018;51.230;7.860;2023-09-30T07:02:54;11.30;99.90
19734;DHT22;10018;51.230;7.860;2023-09-30T07:05:20;11.40;99.90
19734;DHT22;10018;51.230;7.860;2023-09-30T07:07:46;11.50;99.90
19734;DHT22;10018;51.230;7.860;2023-09-30T07:10:11;11.50;99.90
19734;DHT22;10018;51.230;7.860;2023-09-30T07:12:37;11.50;99.90
19734;DHT22;10018;51.230;7.860;2023-09-30T07:15:06;11.50;99.90
19734;DHT22;10018;51.230;7.860;2023-09-30T07:17:33;11.50;99.90
19734;DHT22;10018;51.230;7.860;2023-09-30T07:20:04;11.50;99.90
19734;DHT22;10018;51.230;7.860;2023-09-30T07:22:30;11.60;99.90
19734;DHT22;10018;51.230;7.860;2023-09-30T07:24:57;11.70;99.90
19734;DHT22;10018;51.230;7.860;2023-09-30T07:27:25;11.70;99.90
19734;DHT22;10018;51.230;7.860;2023-09-30T07:29:53;11.70;99.90
19734;DHT22;10018;51.230;7.860;2023-09-30T07:32:19;11.80;99.90
19734;DHT22;10018;51.230;7.860;2023-09-30T07:34:47;11.80;99.90
19734;DHT22;10018;51.230;7.860;2023-09-30T07:37:13;11.90;99.90
19734;DHT22;10018;51.230;7.860;2023-09-30T07:39:41;12.00;99.90
19734;DHT22;10018;51.230;7.860;2023-09-30T07:42:09;12.00;99.90
19734;DHT22;10018;51.230;7.860;2023-09-30T07:44:35;12.10;99.90
19734;DHT22;10018;51.230;7.860;2023-09-30T07:47:03;12.20;99.90
19734;DHT22;10018;51.230;7.860;2023-09-30T07:49:29;12.30;99.90
19734;DHT22;10018;51.230;7.860;2023-09-30T07:51:55;12.40;99.90
19734;DHT22;10018;51.230;7.860;2023-09-30T07:54:21;12.50;99.90
19734;DHT22;10018;51.230;7.860;2023-09-30T07:56:46;12.70;99.90
19734;DHT22;10018;51.230;7.860;2023-09-30T07:59:12;12.70;99.90
19734;DHT22;10018;51.230;7.860;2023-09-30T08:01:39;12.80;99.90
19734;DHT22;10018;51.230;7.860;2023-09-30T08:04:04;12.80;99.90
19734;DHT22;10018;51.230;7.860;2023-09-30T08:06:30;12.90;99.90
19734;DHT22;10018;51.230;7.860;2023-09-30T08:08:56;12.90;99.90
19734;DHT22;10018;51.230;7.860;2023-09-30T08:11:22;12.90;99.90
19734;DHT22;10018;51.230;7.860;2023-09-30T08:13:47;12.80;99.90
19734;DHT22;10018;51.230;7.860;2023-09-30T08:16:13;12.80;99.90
19734;DHT22;10018;51.230;7.860;2023-09-30T08:18:39;12.70;99.90
19734;DHT22;10018;51.230;7.860;2023-09-30T08:21:10;12.60;99.90
19734;DHT22;10018;51.230;7.860;2023-09-30T08:23:36;12.70;99.90
19734;DHT22;10018;51.230;7.860;2023-09-30T08:26:02;12.80;99.90
19734;DHT22;10018;51.230;7.860;2023-09-30T08:28:31;12.90;99.90
19734;DHT22;10018;51.230;7.860;2023-09-30T08:31:05;12.90;99.90
19734;DHT22;10018;51.230;7.860;2023-09-30T08:33:33;12.70;99.90
19734;DHT22;10018;51.230;7.860;2023-09-30T08:36:05;12.80;99.90
19734;DHT22;10018;51.230;7.860;2023-09-30T08:38:34;12.90;99.90
19734;DHT22;10018;51.230;7.860;2023-09-30T08:41:01;12.80;99.90
19734;DHT22;10018;51.230;7.860;2023-09-30T08:43:28;12.80;99.90
19734;DHT22;10018;51.230;7.860;2023-09-30T08:45:56;12.60;99.90
19734;DHT22;10018;51.230;7.860;2023-09-30T08:48:25;12.60;99.90
19734;DHT22;10018;51.230;7.860;2023-09-30T08:50:53;12.70;99.90
19734;DHT22;10018;51.230;7.860;2023-09-30T08:53:19;12.80;99.90
19734;DHT22;10018;51.230;7.860;2023-09-30T08:55:46;12.90;99.90
19734;DHT22;10018;51.230;7.860;2023-09-30T08:58:15;13.00;99.90
19734;DHT22;10018;51.230;7.860;2023-09-30T09:00:42;13.10;99.90
19734;DHT22;10018;51.230;7.860;2023-09-30T09:03:08;13.30;99.90
19734;DHT22;10018;51.230;7.860;2023-09-30T09:05:34;13.40;99.90
19734;DHT22;10018;51.230;7.860;2023-09-30T09:08:00;13.30;99.90
19734;DHT22;10018;51.230;7.860;2023-09-30T09:10:28;13.20;99.90
19734;DHT22;10018;51.230;7.860;2023-09-30T09:12:58;13.40;99.90
19734;DHT22;10018;51.230;7.860;2023-09-30T09:15:26;13.60;99.90
19734;DHT22;10018;51.230;7.860;2023-09-30T09:17:52;13.80;99.90
19734;DHT22;10018;51.230;7.860;2023-09-30T09:20:19;14.00;99.90
19734;DHT22;10018;51.230;7.860;2023-09-30T09:22:47;14.20;99.90
19734;DHT22;10018;51.230;7.860;2023-09-30T09:25:13;14.20;99.90
19734;DHT22;10018;51.230;7.860;2023-09-30T09:27:39;14.40;99.90
19734;DHT22;10018;51.230;7.860;2023-09-30T09:30:24;14.50;99.90
19734;DHT22;10018;51.230;7.860;2023-09-30T09:35:26;14.40;99.90
19734;DHT22;10018;51.230;7.860;2023-09-30T09:40:23;14.50;99.90
19734;DHT22;10018;51.230;7.860;2023-09-30T09:42:51;14.40;99.90
19734;DHT22;10018;51.230;7.860;2023-09-30T09:45:21;14.40;99.90
19734;DHT22;10018;51.230;7.860;2023-09-30T09:47:48;14.50;99.90
19734;DHT22;10018;51.230;7.860;2023-09-30T09:50:14;14.50;99.90
19734;DHT22;10018;51.230;7.860;2023-09-30T09:52:43;14.50;99.90
19734;DHT22;10018;51.230;7.860;2023-09-30T09:55:15;14.20;99.90
19734;DHT22;10018;51.230;7.860;2023-09-30T09:57:43;14.10;99.90
19734;DHT22;10018;51.230;7.860;2023-09-30T10:00:11;14.20;99.90
19734;DHT22;10018;51.230;7.860;2023-09-30T10:02:40;14.20;99.90
19734;DHT22;10018;51.230;7.860;2023-09-30T10:05:07;14.20;99.90
19734;DHT22;10018;51.230;7.860;2023-09-30T10:07:36;14.20;99.90
19734;DHT22;10018;51.230;7.860;2023-09-30T10:10:07;14.00;99.90
19734;DHT22;10018;51.230;7.860;2023-09-30T10:12:38;13.90;99.90
19734;DHT22;10018;51.230;7.860;2023-09-30T10:18:07;14.10;99.90
19734;DHT22;10018;51.230;7.860;2023-09-30T10:20:37;14.10;99.90
19734;DHT22;10018;51.230;7.860;2023-09-30T10:23:20;14.20;99.90
19734;DHT22;10018;51.230;7.860;2023-09-30T10:25:51;14.00;99.90
19734;DHT22;10018;51.230;7.860;2023-09-30T10:28:40;14.20;99.90
19734;DHT22;10018;51.230;7.860;2023-09-30T10:36:37;14.50;99.90
19734;DHT22;10018;51.230;7.860;2023-09-30T10:39:11;14.50;99.90
19734;DHT22;10018;51.230;7.860;2023-09-30T10:46:57;14.50;99.90
19734;DHT22;10018;51.230;7.860;2023-09-30T10:51:50;14.50;99.90
19734;DHT22;10018;51.230;7.860;2023-09-30T10:54:22;14.40;99.90
19734;DHT22;10018;51.230;7.860;2023-09-30T10:56:49;14.50;99.90
19734;DHT22;10018;51.230;7.860;2023-09-30T10:59:25;14.40;99.90
19734;DHT22;10018;51.230;7.860;2023-09-30T11:01:51;14.30;99.90
19734;DHT22;10018;51.230;7.860;2023-09-30T11:04:20;14.50;99.90
19734;DHT22;10018;51.230;7.860;2023-09-30T11:06:46;14.80;99.90
19734;DHT22;10018;51.230;7.860;2023-09-30T11:09:16;15.00;99.90
19734;DHT22;10018;51.230;7.860;2023-09-30T11:11:44;15.10;99.90
19734;DHT22;10018;51.230;7.860;2023-09-30T11:14:31;15.20;99.90
19734;DHT22;10018;51.230;7.860;2023-09-30T11:16:58;15.20;99.90
19734;DHT22;10018;51.230;7.860;2023-09-30T11:19:25;15.30;99.90
19734;DHT22;10018;51.230;7.860;2023-09-30T11:21:52;15.40;99.90
19734;DHT22;10018;51.230;7.860;2023-09-30T11:24:19;15.40;99.90
19734;DHT22;10018;51.230;7.860;2023-09-30T11:26:45;15.40;99.90
19734;DHT22;10018;51.230;7.860;2023-09-30T11:29:12;15.40;99.90
19734;DHT22;10018;51.230;7.860;2023-09-30T11:31:47;15.50;99.90
19734;DHT22;10018;51.230;7.860;2023-09-30T11:34:14;15.60;99.90
19734;DHT22;10018;51.230;7.860;2023-09-30T11:36:51;15.60;99.90
19734;DHT22;10018;51.230;7.860;2023-09-30T11:39:25;15.70;99.90
19734;DHT22;10018;51.230;7.860;2023-09-30T11:41:51;15.80;99.90
19734;DHT22;10018;51.230;7.860;2023-09-30T11:44:17;15.80;99.90
19734;DHT22;10018;51.230;7.860;2023-09-30T11:46:51;16.00;99.90
19734;DHT22;10018;51.230;7.860;2023-09-30T11:49:35;16.30;99.90
19734;DHT22;10018;51.230;7.860;2023-09-30T11:54:45;17.10;99.90
19734;DHT22;10018;51.230;7.860;2023-09-30T11:57:15;17.20;99.90
19734;DHT22;10018;51.230;7.860;2023-09-30T11:59:41;17.30;99.90
19734;DHT22;10018;51.230;7.860;2023-09-30T12:02:11;17.20;99.90
19734;DHT22;10018;51.230;7.860;2023-09-30T12:04:37;17.10;99.90
19734;DHT22;10018;51.230;7.860;2023-09-30T12:07:03;17.00;99.90
19734;DHT22;10018;51.230;7.860;2023-09-30T12:09:29;17.00;99.90
19734;DHT22;10018;51.230;7.860;2023-09-30T12:11:57;17.00;99.90
19734;DHT22;10018;51.230;7.860;2023-09-30T12:14:24;16.90;99.90
19734;DHT22;10018;51.230;7.860;2023-09-30T12:16:49;16.70;99.90
19734;DHT22;10018;51.230;7.860;2023-09-30T12:19:18;16.80;99.90
19734;DHT22;10018;51.230;7.860;2023-09-30T12:21:44;17.00;99.90
19734;DHT22;10018;51.230;7.860;2023-09-30T12:24:16;17.10;99.90
19734;DHT22;10018;51.230;7.860;2023-09-30T12:26:50;17.10;99.90
19734;DHT22;10018;51.230;7.860;2023-09-30T12:29:22;17.40;99.90
19734;DHT22;10018;51.230;7.860;2023-09-30T12:31:52;17.50;99.90
19734;DHT22;10018;51.230;7.860;2023-09-30T12:34:17;17.70;99.90
19734;DHT22;10018;51.230;7.860;2023-09-30T12:36:43;17.80;99.90
19734;DHT22;10018;51.230;7.860;2023-09-30T12:39:10;17.90;99.90
19734;DHT22;10018;51.230;7.860;2023-09-30T12:41:43;18.00;99.90
19734;DHT22;10018;51.230;7.860;2023-09-30T12:44:09;17.80;99.90
19734;DHT22;10018;51.230;7.860;2023-09-30T12:46:36;17.70;99.90
19734;DHT22;10018;51.230;7.860;2023-09-30T12:49:06;17.60;99.90
19734;DHT22;10018;51.230;7.860;2023-09-30T12:51:32;17.60;99.90
19734;DHT22;10018;51.230;7.860;2023-09-30T12:53:59;17.60;99.90
19734;DHT22;10018;51.230;7.860;2023-09-30T12:56:25;17.60;99.90
19734;DHT22;10018;51.230;7.860;2023-09-30T12:58:50;17.60;99.90
19734;DHT22;10018;51.230;7.860;2023-09-30T13:01:16;17.70;99.90
19734;DHT22;10018;51.230;7.860;2023-09-30T13:03:46;17.80;99.90
19734;DHT22;10018;51.230;7.860;2023-09-30T13:06:11;17.90;99.90
19734;DHT22;10018;51.230;7.860;2023-09-30T13:08:37;18.10;99.90
19734;DHT22;10018;51.230;7.860;2023-09-30T13:11:03;18.20;99.90
19734;DHT22;10018;51.230;7.860;2023-09-30T13:13:29;18.10;99.90
19734;DHT22;10018;51.230;7.860;2023-09-30T13:16:02;18.30;99.90
19734;DHT22;10018;51.230;7.860;2023-09-30T13:18:31;18.40;99.90
19734;DHT22;10018;51.230;7.860;2023-09-30T13:20:56;18.60;99.90
19734;DHT22;10018;51.230;7.860;2023-09-30T13:23:23;18.50;99.90
19734;DHT22;10018;51.230;7.860;2023-09-30T13:25:48;18.60;99.90
19734;DHT22;10018;51.230;7.860;2023-09-30T13:28:16;18.70;99.90
19734;DHT22;10018;51.230;7.860;2023-09-30T13:30:41;18.80;99.90
19734;DHT22;10018;51.230;7.860;2023-09-30T13:33:09;19.00;99.90
19734;DHT22;10018;51.230;7.860;2023-09-30T13:35:35;19.60;99.90
19734;DHT22;10018;51.230;7.860;2023-09-30T13:38:03;19.90;99.90
19734;DHT22;10018;51.230;7.860;2023-09-30T13:40:29;20.30;99.90
19734;DHT22;10018;51.230;7.860;2023-09-30T13:42:54;20.80;99.90
19734;DHT22;10018;51.230;7.860;2023-09-30T13:45:21;21.60;99.90
19734;DHT22;10018;51.230;7.860;2023-09-30T13:47:47;22.20;99.90
19734;DHT22;10018;51.230;7.860;2023-09-30T13:50:13;22.00;99.90
19734;DHT22;10018;51.230;7.860;2023-09-30T13:52:38;21.80;99.90
19734;DHT22;10018;51.230;7.860;2023-09-30T13:55:04;21.50;99.90
19734;DHT22;10018;51.230;7.860;2023-09-30T13:57:30;21.60;99.90
19734;DHT22;10018;51.230;7.860;2023-09-30T13:59:56;22.10;99.90
19734;DHT22;10018;51.230;7.860;2023-09-30T14:02:24;22.90;99.90
19734;DHT22;10018;51.230;7.860;2023-09-30T14:04:51;24.20;99.90
19734;DHT22;10018;51.230;7.860;2023-09-30T14:07:16;25.40;99.90
19734;DHT22;10018;51.230;7.860;2023-09-30T14:09:47;25.90;99.90
19734;DHT22;10018;51.230;7.860;2023-09-30T14:12:13;25.60;99.90
19734;DHT22;10018;51.230;7.860;2023-09-30T14:14:38;25.10;99.90
19734;DHT22;10018;51.230;7.860;2023-09-30T14:17:04;25.60;99.90
19734;DHT22;10018;51.230;7.860;2023-09-30T14:19:38;25.70;99.90
19734;DHT22;10018;51.230;7.860;2023-09-30T14:22:05;24.60;99.90
19734;DHT22;10018;51.230;7.860;2023-09-30T14:24:34;24.40;99.90
19734;DHT22;10018;51.230;7.860;2023-09-30T14:27:00;24.40;99.90
19734;DHT22;10018;51.230;7.860;2023-09-30T14:29:26;24.50;99.90
19734;DHT22;10018;51.230;7.860;2023-09-30T14:31:51;24.50;99.90
19734;DHT22;10018;51.230;7.860;2023-09-30T14:34:17;24.80;99.90
19734;DHT22;10018;51.230;7.860;2023-09-30T14:36:43;24.70;99.90
19734;DHT22;10018;51.230;7.860;2023-09-30T14:39:09;24.80;99.90
19734;DHT22;10018;51.230;7.860;2023-09-30T14:41:38;24.60;99.90
19734;DHT22;10018;51.230;7.860;2023-09-30T14:44:04;24.20;99.90
19734;DHT22;10018;51.230;7.860;2023-09-30T14:46:39;23.40;99.90
19734;DHT22;10018;51.230;7.860;2023-09-30T14:49:05;23.20;99.90
19734;DHT22;10018;51.230;7.860;2023-09-30T14:51:36;23.50;99.90
19734;DHT22;10018;51.230;7.860;2023-09-30T14:54:03;23.80;99.90
19734;DHT22;10018;51.230;7.860;2023-09-30T14:56:29;23.80;99.90
19734;DHT22;10018;51.230;7.860;2023-09-30T14:58:55;23.30;99.90
19734;DHT22;10018;51.230;7.860;2023-09-30T15:01:20;22.40;99.90
19734;DHT22;10018;51.230;7.860;2023-09-30T15:03:49;21.80;99.90
19734;DHT22;10018;51.230;7.860;2023-09-30T15:06:14;21.30;99.90
19734;DHT22;10018;51.230;7.860;2023-09-30T15:08:40;21.20;99.90
19734;DHT22;10018;51.230;7.860;2023-09-30T15:11:12;21.60;99.90
19734;DHT22;10018;51.230;7.860;2023-09-30T15:13:37;21.80;99.90
19734;DHT22;10018;51.230;7.860;2023-09-30T15:16:05;21.50;99.90
19734;DHT22;10018;51.230;7.860;2023-09-30T15:18:31;21.00;99.90
19734;DHT22;10018;51.230;7.860;2023-09-30T15:20:59;20.20;99.90
19734;DHT22;10018;51.230;7.860;2023-09-30T15:23:26;19.60;99.90
19734;DHT22;10018;51.230;7.860;2023-09-30T15:25:54;19.20;99.90
19734;DHT22;10018;51.230;7.860;2023-09-30T15:28:19;18.90;99.90
19734;DHT22;10018;51.230;7.860;2023-09-30T15:30:45;18.60;99.90
19734;DHT22;10018;51.230;7.860;2023-09-30T15:33:11;18.20;99.90
19734;DHT22;10018;51.230;7.860;2023-09-30T15:35:38;17.80;99.90
19734;DHT22;10018;51.230;7.860;2023-09-30T15:38:04;17.80;99.90
19734;DHT22;10018;51.230;7.860;2023-09-30T15:40:30;17.90;99.90
19734;DHT22;10018;51.230;7.860;2023-09-30T15:42:57;18.10;99.90
19734;DHT22;10018;51.230;7.860;2023-09-30T15:45:23;18.40;99.90
19734;DHT22;10018;51.230;7.860;2023-09-30T15:47:48;18.70;99.90
19734;DHT22;10018;51.230;7.860;2023-09-30T15:50:14;18.60;99.90
19734;DHT22;10018;51.230;7.860;2023-09-30T15:52:41;18.40;99.90
19734;DHT22;10018;51.230;7.860;2023-09-30T15:55:08;18.00;99.90